createdAt,value
2022-12-28T01:32:05.671Z,14.77
2022-12-28T05:32:44.319Z,27.52
2022-12-28T07:03:53.113Z,27.25
2022-12-28T07:57:03.603Z,30.23
2022-12-28T07:59:31.454Z,31.60
2022-12-28T08:01:59.243Z,27.70
2022-12-28T08:04:27.011Z,31.58
2022-12-28T08:06:57.509Z,34.97
2022-12-28T08:09:27.327Z,28.90
2022-12-28T08:11:54.897Z,30.00
2022-12-28T08:14:22.465Z,25.15
2022-12-28T08:16:57.058Z,23.77
2022-12-28T08:19:33.402Z,23.98
2022-12-28T08:22:01.971Z,21.42
2022-12-28T08:24:29.520Z,26.48
2022-12-28T12:45:40.092Z,8.98
2022-12-28T12:50:55.274Z,21.92
2022-12-28T12:53:48.010Z,11.82
2022-12-28T12:59:50.852Z,6.63
2022-12-28T13:02:50.920Z,6.50
2022-12-28T13:05:24.293Z,20.88
2022-12-28T13:08:05.773Z,25.88
2022-12-28T13:10:38.456Z,36.78
2022-12-28T13:13:07.320Z,7.28
2022-12-28T13:18:45.755Z,2.17
2022-12-28T13:21:20.947Z,3.72
2022-12-28T13:23:51.131Z,5.18
2022-12-28T13:54:35.741Z,5.45
2022-12-28T13:57:36.585Z,6.80
2022-12-28T14:07:19.015Z,8.90
2022-12-28T14:14:09.344Z,12.85
2022-12-28T14:17:21.725Z,6.45
2022-12-28T15:14:25.518Z,15.02
2022-12-28T16:44:23.322Z,53.42
2022-12-28T16:46:51.412Z,64.50
2022-12-28T16:49:21.691Z,64.30
2022-12-28T16:51:51.222Z,54.13
2022-12-28T16:54:24.526Z,52.28
2022-12-28T16:56:52.395Z,53.63
2022-12-28T16:59:26.671Z,48.60
2022-12-28T17:01:55.779Z,48.55
2022-12-28T17:04:23.447Z,53.75
2022-12-28T17:06:52.238Z,44.08
2022-12-28T17:09:20.136Z,40.35
2022-12-28T17:11:50.236Z,31.92
2022-12-28T17:14:36.543Z,32.85
2022-12-28T17:17:10.835Z,52.63
2022-12-28T17:19:41.092Z,117.65
2022-12-28T17:22:11.261Z,81.47
2022-12-28T17:24:42.193Z,54.42
2022-12-28T17:27:15.714Z,32.75
2022-12-28T17:29:52.227Z,27.60
2022-12-28T17:32:19.586Z,45.80
2022-12-28T17:34:53.827Z,40.88
2022-12-28T17:37:21.816Z,41.45
2022-12-28T17:39:49.133Z,30.67
2022-12-28T17:42:16.591Z,36.53
2022-12-28T17:44:46.413Z,23.98
2022-12-28T17:47:18.187Z,8.93
2022-12-28T17:49:45.599Z,25.00
2022-12-28T17:52:20.917Z,25.92
2022-12-28T17:54:52.922Z,19.08
2022-12-28T17:57:23.461Z,15.88
2022-12-28T17:59:51.022Z,19.80
2022-12-28T18:02:18.466Z,21.17
2022-12-28T18:04:45.988Z,17.23
2022-12-28T18:07:13.293Z,24.27
2022-12-28T18:09:40.738Z,24.60
2022-12-28T18:12:08.088Z,21.75
2022-12-28T20:05:01.904Z,82.90
2022-12-28T20:07:32.944Z,76.43
2022-12-28T20:10:00.797Z,79.63
2022-12-28T20:12:28.381Z,61.25
2022-12-28T20:14:55.943Z,60.53
2022-12-28T21:26:33.928Z,66.70
2022-12-28T21:29:01.489Z,55.88
2022-12-28T21:31:28.980Z,59.65
2022-12-28T21:33:56.782Z,59.50
2022-12-28T21:36:41.375Z,55.15
2022-12-28T21:39:11.673Z,55.97
2022-12-28T21:41:54.020Z,52.88
2022-12-28T21:44:24.524Z,52.13
2022-12-28T21:46:53.686Z,62.05
2022-12-28T21:49:21.501Z,59.13
2022-12-28T21:51:52.084Z,70.80
2022-12-28T21:54:21.828Z,102.43
2022-12-28T21:56:54.682Z,77.38
2022-12-28T22:02:09.138Z,109.90
2022-12-28T22:05:01.851Z,119.05
2022-12-28T22:07:33.270Z,98.45
2022-12-28T22:10:19.119Z,89.88
2022-12-28T22:12:46.624Z,65.25
2022-12-28T22:15:38.729Z,55.90
2022-12-28T22:18:52.720Z,49.67
2022-12-28T22:21:05.192Z,47.47
2022-12-28T22:23:34.725Z,51.88
2022-12-28T22:26:05.250Z,51.47
2022-12-28T22:28:33.700Z,54.45
2022-12-28T22:31:09.779Z,54.60
2022-12-28T22:33:37.252Z,69.50
